createdAt,value
2018-12-17T00:00:56.999Z,1001.45
2018-12-17T00:01:56.983Z,1001.48
2018-12-17T00:02:56.971Z,1001.46
2018-12-17T00:03:56.961Z,1001.50
2018-12-17T00:04:56.947Z,1001.53
2018-12-17T00:05:56.957Z,1001.47
2018-12-17T00:06:56.925Z,1001.51
2018-12-17T00:07:56.919Z,1001.55
2018-12-17T00:08:56.901Z,1001.53
2018-12-17T00:09:56.893Z,1001.62
2018-12-17T00:10:56.897Z,1001.63
2018-12-17T00:11:56.866Z,1001.58
2018-12-17T00:12:56.855Z,1001.58
2018-12-17T00:13:56.843Z,1001.65
2018-12-17T00:14:56.835Z,1001.68
2018-12-17T00:15:56.841Z,1001.62
2018-12-17T00:16:56.810Z,1001.66
2018-12-17T00:17:56.797Z,1001.63
2018-12-17T00:18:56.786Z,1001.68
2018-12-17T00:19:56.774Z,1001.67
2018-12-17T00:20:56.803Z,1001.67
2018-12-17T00:21:56.751Z,1001.66
2018-12-17T00:22:56.740Z,1001.72
2018-12-17T00:23:56.730Z,1001.63
2018-12-17T00:24:56.717Z,1001.65
2018-12-17T00:25:56.706Z,1001.66
2018-12-17T00:26:56.712Z,1001.67
2018-12-17T00:27:56.682Z,1001.64
2018-12-17T00:28:56.669Z,1001.62
2018-12-17T00:29:56.659Z,1001.69
2018-12-17T00:30:56.648Z,1001.69
2018-12-17T00:31:56.764Z,1001.68
2018-12-17T00:32:56.623Z,1001.65
2018-12-17T00:33:56.612Z,1001.69
2018-12-17T00:34:56.603Z,1001.68
2018-12-17T00:35:56.589Z,1001.67
2018-12-17T00:36:56.578Z,1001.74
2018-12-17T00:37:56.621Z,1001.65
2018-12-17T00:38:56.576Z,1001.65
2018-12-17T00:39:56.541Z,1001.67
2018-12-17T00:40:56.529Z,1001.66
2018-12-17T00:41:56.518Z,1001.64
2018-12-17T00:42:56.525Z,1001.66
2018-12-17T00:43:56.495Z,1001.68
2018-12-17T00:44:56.483Z,1001.62
2018-12-17T00:45:56.475Z,1001.62
2018-12-17T00:46:56.486Z,1001.68
2018-12-17T00:47:56.466Z,1001.67
2018-12-17T00:48:56.436Z,1001.67
2018-12-17T00:49:56.426Z,1001.67
2018-12-17T00:50:56.413Z,1001.64
2018-12-17T00:51:56.405Z,1001.71
2018-12-17T00:52:56.413Z,1001.70
2018-12-17T00:53:56.379Z,1001.72
2018-12-17T00:54:56.368Z,1001.72
2018-12-17T00:55:56.357Z,1001.68
2018-12-17T00:56:56.346Z,1001.69
2018-12-17T00:57:56.358Z,1001.72
2018-12-17T00:58:56.323Z,1001.71
2018-12-17T00:59:56.311Z,1001.70
2018-12-17T01:00:56.361Z,1001.73
2018-12-17T01:01:56.286Z,1001.65
2018-12-17T01:02:56.396Z,1001.69
2018-12-17T01:03:56.266Z,1001.70
2018-12-17T01:04:56.252Z,1001.64
2018-12-17T01:05:56.242Z,1001.67
2018-12-17T01:06:56.230Z,1001.63
2018-12-17T01:07:56.220Z,1001.64
2018-12-17T01:08:56.225Z,1001.63
2018-12-17T01:09:56.199Z,1001.68
2018-12-17T01:10:56.182Z,1001.69
2018-12-17T01:11:56.171Z,1001.74
2018-12-17T01:12:56.159Z,1001.71
2018-12-17T01:13:56.166Z,1001.77
2018-12-17T01:14:56.134Z,1001.76
2018-12-17T01:15:56.124Z,1001.71
2018-12-17T01:16:56.111Z,1001.69
2018-12-17T01:17:56.106Z,1001.73
2018-12-17T01:18:56.129Z,1001.68
2018-12-17T01:19:56.080Z,1001.67
2018-12-17T01:20:56.068Z,1001.65
2018-12-17T01:21:56.053Z,1001.59
2018-12-17T01:22:56.043Z,1001.60
2018-12-17T01:23:56.031Z,1001.54
2018-12-17T01:24:56.038Z,1001.52
2018-12-17T01:25:56.010Z,1001.53
2018-12-17T01:26:55.995Z,1001.50
2018-12-17T01:27:55.984Z,1001.51
2018-12-17T01:28:55.974Z,1001.52
2018-12-17T01:29:55.983Z,1001.57
2018-12-17T01:30:55.950Z,1001.53
2018-12-17T01:31:55.951Z,1001.55
2018-12-17T01:32:55.929Z,1001.56
2018-12-17T01:33:55.918Z,1001.57
2018-12-17T01:34:55.947Z,1001.55
2018-12-17T01:35:55.893Z,1001.56
2018-12-17T01:36:55.881Z,1001.54
2018-12-17T01:37:55.869Z,1001.58
2018-12-17T01:38:55.859Z,1001.56
2018-12-17T01:39:55.851Z,1001.62
2018-12-17T01:40:55.856Z,1001.60
2018-12-17T01:41:55.824Z,1001.60
2018-12-17T01:42:55.814Z,1001.65
2018-12-17T01:43:55.801Z,1001.60
2018-12-17T01:44:55.789Z,1001.68
2018-12-17T01:45:55.795Z,1001.64
2018-12-17T01:46:55.768Z,1001.66
2018-12-17T01:47:55.757Z,1001.62
2018-12-17T01:48:55.746Z,1001.65
2018-12-17T01:49:55.734Z,1001.59
2018-12-17T01:50:55.739Z,1001.66
2018-12-17T01:51:55.709Z,1001.65
2018-12-17T01:52:55.696Z,1001.68
2018-12-17T01:53:55.684Z,1001.68
2018-12-17T01:54:55.674Z,1001.66
2018-12-17T01:55:55.680Z,1001.70
2018-12-17T01:56:55.652Z,1001.65
2018-12-17T01:57:55.639Z,1001.65
2018-12-17T01:58:55.628Z,1001.66
2018-12-17T01:59:55.615Z,1001.63
2018-12-17T02:00:55.631Z,1001.67
2018-12-17T02:01:55.593Z,1001.64
2018-12-17T02:02:55.584Z,1001.61
2018-12-17T02:03:55.576Z,1001.65
2018-12-17T02:04:55.560Z,1001.71
2018-12-17T02:05:55.550Z,1001.68
2018-12-17T02:06:55.555Z,1001.64
2018-12-17T02:07:55.526Z,1001.66
2018-12-17T02:08:55.517Z,1001.64
2018-12-17T02:09:55.503Z,1001.63
2018-12-17T02:10:55.491Z,1001.59
2018-12-17T02:11:55.503Z,1001.61
2018-12-17T02:12:55.468Z,1001.58
2018-12-17T02:13:55.456Z,1001.55
2018-12-17T02:14:55.445Z,1001.60
2018-12-17T02:15:55.432Z,1001.54
2018-12-17T02:16:55.451Z,1001.52
2018-12-17T02:17:55.427Z,1001.59
2018-12-17T02:18:55.398Z,1001.60
2018-12-17T02:19:55.386Z,1001.57
2018-12-17T02:20:55.374Z,1001.52
2018-12-17T02:21:55.374Z,1001.58
2018-12-17T02:22:55.371Z,1001.56
2018-12-17T02:23:55.341Z,1001.56
2018-12-17T02:24:55.329Z,1001.55
2018-12-17T02:25:55.317Z,1001.55
2018-12-17T02:26:55.306Z,1001.56
2018-12-17T02:27:55.319Z,1001.60
2018-12-17T02:28:55.282Z,1001.57
2018-12-17T02:29:55.274Z,1001.58
2018-12-17T02:30:55.259Z,1001.58
2018-12-17T02:31:55.249Z,1001.54
2018-12-17T02:32:55.264Z,1001.53
2018-12-17T02:33:55.225Z,1001.53
2018-12-17T02:34:55.230Z,1001.58
2018-12-17T02:35:55.202Z,1001.54
2018-12-17T02:36:55.189Z,1001.51
2018-12-17T02:37:55.178Z,1001.49
2018-12-17T02:38:55.185Z,1001.52
2018-12-17T02:39:55.157Z,1001.46
2018-12-17T02:40:55.143Z,1001.53
2018-12-17T02:41:55.133Z,1001.52
2018-12-17T02:42:55.120Z,1001.56
2018-12-17T02:43:55.360Z,1001.57
2018-12-17T02:44:55.097Z,1001.50
2018-12-17T02:45:55.098Z,1001.61
2018-12-17T02:46:55.077Z,1001.63
2018-12-17T02:47:55.065Z,1001.62
2018-12-17T02:48:55.051Z,1001.64
2018-12-17T02:49:55.059Z,1001.64
2018-12-17T02:50:55.031Z,1001.64
2018-12-17T02:51:55.029Z,1001.70
2018-12-17T02:52:55.003Z,1001.69
2018-12-17T02:53:54.992Z,1001.73
2018-12-17T02:54:55.012Z,1001.65
2018-12-17T02:55:54.985Z,1001.76
2018-12-17T02:56:54.958Z,1001.77
2018-12-17T02:57:54.946Z,1001.73
2018-12-17T02:58:54.933Z,1001.79
2018-12-17T02:59:54.947Z,1001.85
2018-12-17T03:00:54.912Z,1001.87
2018-12-17T03:01:54.900Z,1001.91
2018-12-17T03:02:54.888Z,1001.85
2018-12-17T03:03:54.875Z,1001.88
2018-12-17T03:04:54.864Z,1001.88
2018-12-17T03:05:54.876Z,1001.90
2018-12-17T03:06:54.843Z,1001.88
2018-12-17T03:07:54.828Z,1001.85
2018-12-17T03:08:54.819Z,1001.88
2018-12-17T03:09:54.811Z,1001.88
2018-12-17T03:10:54.820Z,1001.82
2018-12-17T03:11:54.783Z,1001.87
2018-12-17T03:12:54.774Z,1001.86
2018-12-17T03:13:54.760Z,1001.85
2018-12-17T03:14:54.747Z,1001.88
2018-12-17T03:15:54.739Z,1001.87
2018-12-17T03:16:54.742Z,1001.90
2018-12-17T03:17:54.713Z,1001.90
2018-12-17T03:18:54.723Z,1001.93
2018-12-17T03:19:54.689Z,1001.96
2018-12-17T03:20:54.676Z,1001.96
2018-12-17T03:21:54.688Z,1001.99
2018-12-17T03:22:54.654Z,1001.98
2018-12-17T03:23:54.650Z,1002.01
2018-12-17T03:24:54.630Z,1001.96
2018-12-17T03:25:54.621Z,1001.97
2018-12-17T03:26:54.632Z,1002.01
2018-12-17T03:27:54.614Z,1002.04
2018-12-17T03:28:54.585Z,1002.01
2018-12-17T03:29:54.576Z,1002.00
2018-12-17T03:30:54.589Z,1001.99
2018-12-17T03:31:54.550Z,1001.96
2018-12-17T03:32:54.563Z,1001.99
2018-12-17T03:33:54.525Z,1001.99
2018-12-17T03:34:54.513Z,1001.93
2018-12-17T03:35:54.515Z,1001.98
2018-12-17T03:36:54.493Z,1001.97
2018-12-17T03:37:54.486Z,1001.91
2018-12-17T03:38:54.487Z,1001.96
2018-12-17T03:39:54.457Z,1001.91
2018-12-17T03:40:54.454Z,1001.88
2018-12-17T03:41:54.435Z,1001.98
2018-12-17T03:42:54.421Z,1001.98
2018-12-17T03:43:54.462Z,1002.00
2018-12-17T03:44:54.398Z,1002.02
2018-12-17T03:45:54.385Z,1001.99
2018-12-17T03:46:54.378Z,1002.01
2018-12-17T03:47:54.369Z,1002.00
2018-12-17T03:48:54.352Z,1001.98
2018-12-17T03:49:54.367Z,1001.98
2018-12-17T03:50:54.330Z,1001.97
2018-12-17T03:51:54.317Z,1001.95
2018-12-17T03:52:54.304Z,1001.96
2018-12-17T03:53:54.293Z,1002.02
2018-12-17T03:54:54.466Z,1002.02
2018-12-17T03:55:54.270Z,1001.98
2018-12-17T03:56:54.258Z,1002.06
2018-12-17T03:57:54.249Z,1002.00
2018-12-17T03:58:59.154Z,1002.04
2018-12-17T03:59:55.465Z,1001.99
2018-12-17T04:00:54.213Z,1002.01
2018-12-17T04:01:54.200Z,1001.97
2018-12-17T04:02:54.188Z,1001.98
2018-12-17T04:03:54.175Z,1001.90
2018-12-17T04:04:54.165Z,1001.96
2018-12-17T04:06:01.199Z,1001.98
2018-12-17T04:06:54.145Z,1002.00
2018-12-17T04:07:54.131Z,1001.85
2018-12-17T04:08:54.118Z,1001.85
2018-12-17T04:09:54.111Z,1001.90
2018-12-17T04:10:54.116Z,1001.89
2018-12-17T04:11:54.084Z,1001.87
2018-12-17T04:12:54.072Z,1001.89
2018-12-17T04:13:54.058Z,1001.89
2018-12-17T04:14:54.060Z,1001.88
2018-12-17T04:15:54.085Z,1001.81
2018-12-17T04:16:54.065Z,1001.88
2018-12-17T04:17:54.014Z,1001.89
2018-12-17T04:18:54.004Z,1001.87
2018-12-17T04:19:54.003Z,1001.83
2018-12-17T04:20:53.977Z,1001.89
2018-12-17T04:21:54.013Z,1001.85
2018-12-17T04:22:53.952Z,1001.84
2018-12-17T04:23:53.946Z,1001.82
2018-12-17T04:24:53.954Z,1001.83
2018-12-17T04:25:53.920Z,1001.85
2018-12-17T04:26:53.908Z,1001.84
2018-12-17T04:27:53.922Z,1001.84
2018-12-17T04:28:53.888Z,1001.85
2018-12-17T04:29:53.872Z,1001.82
2018-12-17T04:30:53.862Z,1001.89
2018-12-17T04:31:53.848Z,1001.85
2018-12-17T04:32:54.137Z,1001.89
2018-12-17T04:33:53.836Z,1001.87
2018-12-17T04:34:53.815Z,1001.98
2018-12-17T04:35:53.808Z,1001.91
2018-12-17T04:36:53.792Z,1001.98
2018-12-17T04:37:53.781Z,1001.98
2018-12-17T04:38:53.786Z,1002.06
2018-12-17T04:39:53.785Z,1002.06
2018-12-17T04:40:53.744Z,1002.10
2018-12-17T04:41:53.736Z,1002.10
2018-12-17T04:42:53.749Z,1002.11
2018-12-17T04:43:53.754Z,1002.11
2018-12-17T04:44:53.702Z,1002.11
2018-12-17T04:45:53.686Z,1002.15
2018-12-17T04:46:53.686Z,1002.14
2018-12-17T04:47:53.664Z,1002.18
2018-12-17T04:48:53.652Z,1002.17
2018-12-17T04:49:53.660Z,1002.19
2018-12-17T04:50:53.641Z,1002.19
2018-12-17T04:51:53.625Z,1002.19
2018-12-17T04:52:53.609Z,1002.19
2018-12-17T04:53:53.625Z,1002.25
2018-12-17T04:54:53.633Z,1002.32
2018-12-17T04:55:53.578Z,1002.27
2018-12-17T04:56:53.568Z,1002.34
2018-12-17T04:57:53.549Z,1002.32
2018-12-17T04:58:53.540Z,1002.38
2018-12-17T04:59:53.525Z,1002.37
2018-12-17T05:00:53.541Z,1002.39
2018-12-17T05:01:53.548Z,1002.37
2018-12-17T05:02:53.490Z,1002.38
2018-12-17T05:03:53.482Z,1002.39
2018-12-17T05:04:53.469Z,1002.43
2018-12-17T05:05:53.551Z,1002.40
2018-12-17T05:06:53.447Z,1002.44
2018-12-17T05:07:53.458Z,1002.45
2018-12-17T05:08:53.504Z,1002.38
2018-12-17T05:09:53.414Z,1002.40
2018-12-17T05:10:53.398Z,1002.45
2018-12-17T05:11:53.402Z,1002.45
2018-12-17T05:12:53.372Z,1002.36
2018-12-17T05:13:53.370Z,1002.54
2018-12-17T05:14:53.366Z,1002.48
2018-12-17T05:15:53.342Z,1002.53
2018-12-17T05:16:53.350Z,1002.50
2018-12-17T05:17:53.314Z,1002.49
2018-12-17T05:18:53.303Z,1002.50
2018-12-17T05:19:53.293Z,1002.49
2018-12-17T05:20:53.306Z,1002.51
2018-12-17T05:21:53.267Z,1002.49
2018-12-17T05:22:53.280Z,1002.50
2018-12-17T05:23:53.246Z,1002.49
2018-12-17T05:24:53.233Z,1002.49
2018-12-17T05:25:53.222Z,1002.54
2018-12-17T05:26:53.236Z,1002.54
2018-12-17T05:27:53.239Z,1002.56
2018-12-17T05:28:53.192Z,1002.58
2018-12-17T05:29:53.178Z,1002.55
2018-12-17T05:30:53.165Z,1002.58
2018-12-17T05:31:53.167Z,1002.59
2018-12-17T05:32:53.140Z,1002.60
2018-12-17T05:33:53.147Z,1002.65
2018-12-17T05:34:53.120Z,1002.59
2018-12-17T05:35:53.144Z,1002.63
2018-12-17T05:36:53.101Z,1002.62
2018-12-17T05:37:53.084Z,1002.59
2018-12-17T05:38:53.097Z,1002.62
2018-12-17T05:39:53.106Z,1002.59
2018-12-17T05:40:53.051Z,1002.67
2018-12-17T05:41:53.034Z,1002.65
2018-12-17T05:42:53.058Z,1002.63
2018-12-17T05:43:53.018Z,1002.63
2018-12-17T05:44:53.022Z,1002.60
2018-12-17T05:45:52.989Z,1002.62
2018-12-17T05:46:52.981Z,1002.63
2018-12-17T05:47:52.990Z,1002.57
2018-12-17T05:48:52.955Z,1002.58
2018-12-17T05:49:52.966Z,1002.73
2018-12-17T05:50:52.935Z,1002.61
2018-12-17T05:51:52.918Z,1002.63
2018-12-17T05:52:52.923Z,1002.66
2018-12-17T05:53:52.894Z,1002.63
2018-12-17T05:54:52.893Z,1002.62
2018-12-17T05:55:52.889Z,1002.61
2018-12-17T05:56:52.881Z,1002.65
2018-12-17T05:57:52.848Z,1002.68
2018-12-17T05:58:52.839Z,1002.74
2018-12-17T05:59:52.829Z,1002.80
2018-12-17T06:00:53.013Z,1002.80
2018-12-17T06:01:52.808Z,1002.79
2018-12-17T06:02:52.790Z,1002.82
2018-12-17T06:03:52.806Z,1002.87
2018-12-17T06:04:52.767Z,1002.86
2018-12-17T06:05:52.758Z,1002.81
2018-12-17T06:06:52.774Z,1002.77
2018-12-17T06:07:52.734Z,1002.79
2018-12-17T06:08:52.732Z,1002.79
2018-12-17T06:09:52.727Z,1002.86
2018-12-17T06:10:52.700Z,1002.84
2018-12-17T06:11:52.712Z,1002.83
2018-12-17T06:12:52.712Z,1002.91
2018-12-17T06:13:52.666Z,1002.85
2018-12-17T06:14:52.653Z,1002.89
2018-12-17T06:15:52.663Z,1002.91
2018-12-17T06:16:52.634Z,1002.91
2018-12-17T06:17:52.639Z,1002.90
2018-12-17T06:18:52.629Z,1002.92
2018-12-17T06:19:52.607Z,1002.89
2018-12-17T06:20:52.584Z,1003.00
2018-12-17T06:21:52.607Z,1002.93
2018-12-17T06:22:52.656Z,1003.02
2018-12-17T06:23:52.554Z,1002.95
2018-12-17T06:24:52.535Z,1002.94
2018-12-17T06:25:52.575Z,1002.97
2018-12-17T06:26:52.515Z,1002.95
2018-12-17T06:27:52.503Z,1002.97
2018-12-17T06:28:52.536Z,1002.93
2018-12-17T06:29:52.492Z,1002.93
2018-12-17T06:30:52.470Z,1002.92
2018-12-17T06:31:52.463Z,1002.93
2018-12-17T06:32:52.446Z,1002.92
2018-12-17T06:33:52.706Z,1002.93
2018-12-17T06:34:52.451Z,1002.94
2018-12-17T06:35:52.413Z,1002.97
2018-12-17T06:36:52.407Z,1002.94
2018-12-17T06:37:52.401Z,1002.96
2018-12-17T06:38:52.383Z,1002.96
2018-12-17T06:39:52.393Z,1002.95
2018-12-17T06:40:52.356Z,1002.90
2018-12-17T06:41:52.352Z,1002.97
2018-12-17T06:42:52.338Z,1003.05
2018-12-17T06:43:52.318Z,1003.02
2018-12-17T06:44:52.355Z,1003.00
2018-12-17T06:45:52.301Z,1002.98
2018-12-17T06:46:52.295Z,1002.98
2018-12-17T06:47:52.277Z,1002.97
2018-12-17T06:48:52.259Z,1002.94
2018-12-17T06:49:52.250Z,1002.99
2018-12-17T06:50:52.256Z,1003.02
2018-12-17T06:51:52.233Z,1002.91
2018-12-17T06:52:52.218Z,1003.01
2018-12-17T06:53:52.211Z,1003.00
2018-12-17T06:54:54.965Z,1003.05
2018-12-17T06:55:52.206Z,1003.03
2018-12-17T06:56:52.168Z,1003.08
2018-12-17T06:57:52.167Z,1003.11
2018-12-17T06:58:52.159Z,1003.15
2018-12-17T06:59:52.133Z,1003.09
2018-12-17T07:00:52.131Z,1003.14
2018-12-17T07:01:52.133Z,1003.09
2018-12-17T07:02:52.109Z,1003.14
2018-12-17T07:03:52.090Z,1003.18
2018-12-17T07:04:52.121Z,1003.18
2018-12-17T07:05:52.073Z,1003.24
2018-12-17T07:06:52.305Z,1003.19
2018-12-17T07:07:52.045Z,1003.16
2018-12-17T07:08:52.039Z,1003.26
2018-12-17T07:09:52.019Z,1003.22
2018-12-17T07:10:52.009Z,1003.27
2018-12-17T07:11:52.003Z,1003.26
2018-12-17T07:12:52.022Z,1003.21
2018-12-17T07:13:51.975Z,1003.28
2018-12-17T07:14:51.963Z,1003.33
2018-12-17T07:15:51.958Z,1003.30
2018-12-17T07:16:51.937Z,1003.35
2018-12-17T07:17:51.980Z,1003.33
2018-12-17T07:18:51.916Z,1003.35
2018-12-17T07:19:51.935Z,1003.37
2018-12-17T07:20:51.892Z,1003.42
2018-12-17T07:21:51.880Z,1003.42
2018-12-17T07:22:51.870Z,1003.43
2018-12-17T07:23:51.881Z,1003.45
2018-12-17T07:24:51.851Z,1003.49
2018-12-17T07:25:51.833Z,1003.57
2018-12-17T07:26:51.913Z,1003.50
2018-12-17T07:27:51.813Z,1003.49
2018-12-17T07:28:51.845Z,1003.54
2018-12-17T07:29:51.789Z,1003.58
2018-12-17T07:30:51.781Z,1003.52
2018-12-17T07:31:51.763Z,1003.62
2018-12-17T07:32:51.769Z,1003.58
2018-12-17T07:33:51.745Z,1003.65
2018-12-17T07:34:51.752Z,1003.64
2018-12-17T07:35:51.718Z,1003.65
2018-12-17T07:36:51.706Z,1003.70
2018-12-17T07:37:51.695Z,1003.70
2018-12-17T07:38:51.687Z,1003.75
2018-12-17T07:39:51.797Z,1003.75
2018-12-17T07:40:51.670Z,1003.76
2018-12-17T07:41:51.653Z,1003.72
2018-12-17T07:42:51.671Z,1003.76
2018-12-17T07:43:51.630Z,1003.79
2018-12-17T07:44:51.613Z,1003.74
2018-12-17T07:45:51.622Z,1003.78
2018-12-17T07:46:51.591Z,1003.79
2018-12-17T07:47:51.580Z,1003.84
2018-12-17T07:48:51.585Z,1003.75
2018-12-17T07:49:51.572Z,1003.81
2018-12-17T07:50:51.566Z,1003.83
2018-12-17T07:51:51.535Z,1003.75
2018-12-17T07:52:51.527Z,1003.86
2018-12-17T07:53:51.514Z,1003.84
2018-12-17T07:54:51.500Z,1003.81
2018-12-17T07:55:51.626Z,1003.77
2018-12-17T07:56:51.476Z,1003.79
2018-12-17T07:57:51.467Z,1003.83
2018-12-17T07:58:51.453Z,1003.79
2018-12-17T07:59:56.734Z,1003.81
2018-12-17T08:00:52.521Z,1003.85
2018-12-17T08:01:51.424Z,1003.84
2018-12-17T08:02:51.408Z,1003.87
2018-12-17T08:03:51.405Z,1003.90
2018-12-17T08:04:51.384Z,1003.90
2018-12-17T08:05:51.418Z,1003.96
2018-12-17T08:06:51.380Z,1003.96
2018-12-17T08:07:51.356Z,1004.03
2018-12-17T08:08:51.366Z,1004.01
2018-12-17T08:09:51.327Z,1004.03
2018-12-17T08:10:51.316Z,1004.01
2018-12-17T08:11:51.389Z,1004.09
2018-12-17T08:12:51.292Z,1004.07
2018-12-17T08:13:51.284Z,1004.02
2018-12-17T08:14:51.267Z,1004.10
2018-12-17T08:15:51.257Z,1004.06
2018-12-17T08:16:51.252Z,1004.03
2018-12-17T08:17:51.260Z,1004.09
2018-12-17T08:18:51.240Z,1004.10
2018-12-17T08:19:51.210Z,1004.13
2018-12-17T08:20:51.245Z,1004.13
2018-12-17T08:21:51.188Z,1004.15
2018-12-17T08:22:51.298Z,1004.16
2018-12-17T08:23:51.206Z,1004.16
2018-12-17T08:24:51.152Z,1004.22
2018-12-17T08:25:51.142Z,1004.17
2018-12-17T08:26:51.138Z,1004.14
2018-12-17T08:27:51.124Z,1004.16
2018-12-17T08:28:51.148Z,1004.16
2018-12-17T08:29:51.094Z,1004.13
2018-12-17T08:30:51.114Z,1004.13
2018-12-17T08:31:51.072Z,1004.15
2018-12-17T08:32:51.065Z,1004.15
2018-12-17T08:33:51.089Z,1004.20
2018-12-17T08:34:51.038Z,1004.15
2018-12-17T08:35:51.026Z,1004.17
2018-12-17T08:36:51.018Z,1004.13
2018-12-17T08:37:51.009Z,1004.13
2018-12-17T08:38:51.028Z,1004.19
2018-12-17T08:39:50.986Z,1004.20
2018-12-17T08:40:50.978Z,1004.21
2018-12-17T08:41:50.972Z,1004.15
2018-12-17T08:42:50.948Z,1004.17
2018-12-17T08:43:50.937Z,1004.19
2018-12-17T08:44:50.944Z,1004.16
2018-12-17T08:45:50.913Z,1004.13
2018-12-17T08:46:50.914Z,1004.17
2018-12-17T08:47:50.888Z,1004.19
2018-12-17T08:48:50.923Z,1004.12
2018-12-17T08:49:50.900Z,1004.20
2018-12-17T08:50:50.865Z,1004.17
2018-12-17T08:51:50.841Z,1004.15
2018-12-17T08:52:50.833Z,1004.21
2018-12-17T08:53:50.825Z,1004.19
2018-12-17T08:54:50.841Z,1004.16
2018-12-17T08:55:50.825Z,1004.25
2018-12-17T08:56:50.784Z,1004.28
2018-12-17T08:57:50.799Z,1004.20
2018-12-17T08:58:50.814Z,1004.27
2018-12-17T08:59:50.765Z,1004.29
2018-12-17T09:00:50.762Z,1004.29
2018-12-17T09:01:50.767Z,1004.22
2018-12-17T09:02:50.718Z,1004.28
2018-12-17T09:03:50.705Z,1004.28
2018-12-17T09:04:50.703Z,1004.34
2018-12-17T09:05:50.692Z,1004.36
2018-12-17T09:06:50.695Z,1004.39
2018-12-17T09:07:50.659Z,1004.43
2018-12-17T09:08:50.646Z,1004.42
2018-12-17T09:09:50.639Z,1004.37
2018-12-17T09:10:50.639Z,1004.36
2018-12-17T09:11:50.645Z,1004.43
2018-12-17T09:12:50.605Z,1004.42
2018-12-17T09:13:50.593Z,1004.44
2018-12-17T09:14:50.682Z,1004.53
2018-12-17T09:15:50.587Z,1004.50
2018-12-17T09:16:50.585Z,1004.52
2018-12-17T09:17:50.555Z,1004.55
2018-12-17T09:18:50.532Z,1004.62
2018-12-17T09:19:50.526Z,1004.56
2018-12-17T09:20:50.511Z,1004.54
2018-12-17T09:21:50.540Z,1004.59
2018-12-17T09:22:50.517Z,1004.57
2018-12-17T09:23:50.477Z,1004.56
2018-12-17T09:24:50.471Z,1004.58
2018-12-17T09:25:50.456Z,1004.57
2018-12-17T09:26:50.495Z,1004.59
2018-12-17T09:27:50.470Z,1004.62
2018-12-17T09:28:50.422Z,1004.67
2018-12-17T09:29:50.407Z,1004.63
2018-12-17T09:30:50.395Z,1004.65
2018-12-17T09:31:50.396Z,1004.72
2018-12-17T09:32:50.381Z,1004.62
2018-12-17T09:33:50.390Z,1004.71
2018-12-17T09:34:50.357Z,1004.69
2018-12-17T09:35:50.340Z,1004.72
2018-12-17T09:36:50.331Z,1004.71
2018-12-17T09:37:50.324Z,1004.76
2018-12-17T09:38:50.330Z,1004.80
2018-12-17T09:39:50.332Z,1004.81
2018-12-17T09:40:50.289Z,1004.85
2018-12-17T09:41:50.275Z,1004.82
2018-12-17T09:42:50.263Z,1004.87
2018-12-17T09:43:50.269Z,1004.87
2018-12-17T09:44:50.241Z,1004.89
2018-12-17T09:45:50.225Z,1004.90
2018-12-17T09:46:50.219Z,1004.91
2018-12-17T09:47:50.239Z,1004.88
2018-12-17T09:48:50.233Z,1004.94
2018-12-17T09:49:50.179Z,1004.96
2018-12-17T09:50:50.175Z,1004.99
2018-12-17T09:51:50.161Z,1004.89
2018-12-17T09:52:50.172Z,1004.96
2018-12-17T09:53:50.136Z,1004.98
2018-12-17T09:54:50.145Z,1004.97
2018-12-17T09:55:50.110Z,1004.98
2018-12-17T09:56:50.100Z,1004.97
2018-12-17T09:57:50.088Z,1004.91
2018-12-17T09:58:50.082Z,1004.95
2018-12-17T09:59:50.093Z,1004.94
2018-12-17T10:00:50.057Z,1004.87
2018-12-17T10:01:50.045Z,1004.85
2018-12-17T10:02:50.032Z,1004.89
2018-12-17T10:03:50.021Z,1004.93
2018-12-17T10:04:50.077Z,1004.94
2018-12-17T10:05:50.013Z,1004.91
2018-12-17T10:06:49.984Z,1004.89
2018-12-17T10:07:49.973Z,1004.92
2018-12-17T10:08:49.968Z,1004.90
2018-12-17T10:09:49.974Z,1004.97
2018-12-17T10:10:49.968Z,1004.80
2018-12-17T10:11:49.932Z,1004.87
2018-12-17T10:12:49.924Z,1004.89
2018-12-17T10:13:49.934Z,1004.87
2018-12-17T10:14:49.901Z,1004.85
2018-12-17T10:15:49.908Z,1004.91
2018-12-17T10:16:49.875Z,1004.95
2018-12-17T10:17:49.872Z,1004.87
2018-12-17T10:18:49.851Z,1004.88
2018-12-17T10:19:49.838Z,1004.89
2018-12-17T10:20:49.881Z,1004.84
2018-12-17T10:21:49.814Z,1004.85
2018-12-17T10:22:49.825Z,1004.91
2018-12-17T10:23:49.788Z,1004.89
2018-12-17T10:24:49.777Z,1004.83
2018-12-17T10:25:49.795Z,1004.89
2018-12-17T10:26:49.778Z,1004.89
2018-12-17T10:27:49.738Z,1004.84
2018-12-17T10:28:49.740Z,1004.89
2018-12-17T10:29:49.719Z,1004.84
2018-12-17T10:30:49.724Z,1004.83
2018-12-17T10:31:49.716Z,1004.95
2018-12-17T10:32:49.682Z,1004.95
2018-12-17T10:33:49.704Z,1004.91
2018-12-17T10:34:49.660Z,1004.94
2018-12-17T10:35:49.646Z,1004.91
2018-12-17T10:36:49.637Z,1004.95
2018-12-17T10:37:49.651Z,1004.92
2018-12-17T10:38:49.639Z,1004.91
2018-12-17T10:39:49.596Z,1004.93
2018-12-17T10:40:49.586Z,1004.99
2018-12-17T10:41:49.586Z,1005.00
2018-12-17T10:42:49.587Z,1005.00
2018-12-17T10:43:49.610Z,1005.00
2018-12-17T10:44:49.535Z,1004.96
2018-12-17T10:45:49.533Z,1004.95
2018-12-17T10:46:49.515Z,1004.97
2018-12-17T10:47:49.505Z,1004.95
2018-12-17T10:48:49.509Z,1004.97
2018-12-17T10:49:49.481Z,1005.03
2018-12-17T10:50:49.476Z,1005.03
2018-12-17T10:51:49.462Z,1005.01
2018-12-17T10:52:49.450Z,1004.97
2018-12-17T10:53:49.459Z,1004.96
2018-12-17T10:54:49.419Z,1005.00
2018-12-17T10:55:49.403Z,1005.13
2018-12-17T10:56:49.408Z,1005.01
2018-12-17T10:57:49.395Z,1005.00
2018-12-17T10:58:49.370Z,1004.97
2018-12-17T10:59:49.373Z,1005.02
2018-12-17T11:00:49.344Z,1005.00
2018-12-17T11:01:49.331Z,1005.09
2018-12-17T11:02:49.350Z,1005.08
2018-12-17T11:03:49.315Z,1005.17
2018-12-17T11:04:49.317Z,1005.08
2018-12-17T11:05:49.398Z,1005.10
2018-12-17T11:06:49.274Z,1005.11
2018-12-17T11:07:49.277Z,1005.12
2018-12-17T11:08:49.252Z,1005.11
2018-12-17T11:09:49.365Z,1005.12
2018-12-17T11:10:49.227Z,1005.10
2018-12-17T11:11:49.252Z,1005.09
2018-12-17T11:12:49.203Z,1005.19
2018-12-17T11:13:49.189Z,1005.22
2018-12-17T11:14:49.182Z,1005.20
2018-12-17T11:15:49.195Z,1005.27
2018-12-17T11:16:49.153Z,1005.25
2018-12-17T11:17:49.145Z,1005.22
2018-12-17T11:18:49.170Z,1005.32
2018-12-17T11:19:49.125Z,1005.27
2018-12-17T11:20:49.128Z,1005.29
2018-12-17T11:21:49.123Z,1005.29
2018-12-17T11:22:49.095Z,1005.28
2018-12-17T11:23:49.075Z,1005.31
2018-12-17T11:24:49.062Z,1005.30
2018-12-17T11:25:49.077Z,1005.30
2018-12-17T11:26:49.059Z,1005.26
2018-12-17T11:27:49.025Z,1005.29
2018-12-17T11:28:49.015Z,1005.26
2018-12-17T11:29:49.026Z,1005.31
2018-12-17T11:30:48.990Z,1005.31
2018-12-17T11:31:49.002Z,1005.34
2018-12-17T11:32:48.967Z,1005.40
2018-12-17T11:33:48.962Z,1005.36
2018-12-17T11:34:48.941Z,1005.25
2018-12-17T11:35:48.929Z,1005.25
2018-12-17T11:36:48.991Z,1005.28
2018-12-17T11:37:48.907Z,1005.26
2018-12-17T11:38:48.973Z,1005.26
2018-12-17T11:39:48.886Z,1005.26
2018-12-17T11:40:48.877Z,1005.26
2018-12-17T11:41:48.879Z,1005.29
2018-12-17T11:42:48.847Z,1005.31
2018-12-17T11:43:48.858Z,1005.26
2018-12-17T11:44:48.831Z,1005.32
2018-12-17T11:45:48.812Z,1005.29
2018-12-17T11:46:48.824Z,1005.30
2018-12-17T11:47:48.800Z,1005.30
2018-12-17T11:48:48.775Z,1005.31
2018-12-17T11:49:48.767Z,1005.25
2018-12-17T11:50:48.778Z,1005.27
2018-12-17T11:51:48.744Z,1005.23
2018-12-17T11:52:48.754Z,1005.26
2018-12-17T11:53:48.739Z,1005.26
2018-12-17T11:54:48.702Z,1005.26
2018-12-17T11:55:48.700Z,1005.26
2018-12-17T11:56:48.679Z,1005.26
2018-12-17T11:57:48.686Z,1005.27
2018-12-17T11:58:48.654Z,1005.24
2018-12-17T11:59:48.674Z,1005.28
2018-12-17T12:00:53.631Z,1005.33
2018-12-17T12:01:49.617Z,1005.27
2018-12-17T12:02:48.642Z,1005.24
2018-12-17T12:03:48.657Z,1005.28
2018-12-17T12:04:48.595Z,1005.32
2018-12-17T12:05:48.581Z,1005.34